Terminal Aerodrome Forecast
Issued by NWS Atlanta, GA

Home | Current Version | Previous Version | Text Only | Print | Product List | Glossary On
Versions: 1 2 3 4 5 6 7 8 9 10 11 12 13 14 15 16 17 18 19 20
000
FTUS42 KFFC 260939 AAA
TAFMCN
TAF AMD
KMCN 260939Z 2610/2706 26008KT P6SM SCT025 BKN080
      TEMPO 2610/2612 BKN025
     FM261200 28010KT P6SM BKN025
     FM261600 30012G20KT P6SM BKN040
     FM261900 30014G24KT P6SM SCT050
     FM270000 31010KT P6SM FEW100 SCT250=

USA.gov is the U.S. government's official web portal to all federal, state and local government web resources and services.